<?xml version="1.0" encoding="UTF-8" standalone="no" ?>
<gpx xmlns="http://www.topografix.com/GPX/1/1" xmlns:xsi="http://www.w3.org/2001/XMLSchema-instance" xsi:schemaLocation="http://www.topografix.com/GPX/1/1 http://www.topografix.com/GPX/1/1/gpx.xsd" version="1.1" creator="VisuGPX - https://www.visugpx.com">
  <metadata>
    <name>Castelnau de Guers</name>
    <desc><![CDATA[ASLV : Rando du 11 mai 2012]]></desc>
  </metadata>
  <trk>
    <name><![CDATA[Castelnau de Guers_1]]></name>
    <cmt><![CDATA[11-05-2012]]></cmt>
    <trkseg>
      <trkpt lat="43.43458" lon="3.44099">
        <ele>44.9</ele>
        <time>2012-05-11T12:09:24</time>
      </trkpt>
      <trkpt lat="43.43449" lon="3.44075">
        <ele>-55</ele>
        <time>2012-05-11T12:09:54</time>
      </trkpt>
      <trkpt lat="43.43441" lon="3.44064">
        <ele>-54</ele>
        <time>2012-05-11T12:10:24</time>
      </trkpt>
      <trkpt lat="43.4343" lon="3.44057">
        <ele>-55</ele>
        <time>2012-05-11T12:10:54</time>
      </trkpt>
      <trkpt lat="43.43431" lon="3.44056">
        <ele>-55</ele>
        <time>2012-05-11T12:11:24</time>
      </trkpt>
      <trkpt lat="43.43433" lon="3.44057">
        <ele>-55</ele>
        <time>2012-05-11T12:11:55</time>
      </trkpt>
      <trkpt lat="43.43438" lon="3.4406">
        <ele>-55</ele>
        <time>2012-05-11T12:12:25</time>
      </trkpt>
      <trkpt lat="43.43439" lon="3.44059">
        <ele>-54</ele>
        <time>2012-05-11T12:12:55</time>
      </trkpt>
      <trkpt lat="43.43453" lon="3.4404">
        <ele>-67</ele>
        <time>2012-05-11T12:13:25</time>
      </trkpt>
      <trkpt lat="43.43468" lon="3.44016">
        <ele>-51</ele>
        <time>2012-05-11T12:13:55</time>
      </trkpt>
      <trkpt lat="43.43487" lon="3.43987">
        <ele>-50</ele>
        <time>2012-05-11T12:14:26</time>
      </trkpt>
      <trkpt lat="43.43509" lon="3.43961">
        <ele>-46</ele>
        <time>2012-05-11T12:14:56</time>
      </trkpt>
      <trkpt lat="43.4353" lon="3.43949">
        <ele>-46</ele>
        <time>2012-05-11T12:15:26</time>
      </trkpt>
      <trkpt lat="43.43544" lon="3.43973">
        <ele>-45</ele>
        <time>2012-05-11T12:15:56</time>
      </trkpt>
      <trkpt lat="43.4356" lon="3.4401">
        <ele>-44</ele>
        <time>2012-05-11T12:16:26</time>
      </trkpt>
      <trkpt lat="43.43579" lon="3.44047">
        <ele>-41</ele>
        <time>2012-05-11T12:16:56</time>
      </trkpt>
      <trkpt lat="43.43602" lon="3.44084">
        <ele>-42</ele>
        <time>2012-05-11T12:17:27</time>
      </trkpt>
      <trkpt lat="43.43619" lon="3.44117">
        <ele>-42</ele>
        <time>2012-05-11T12:17:57</time>
      </trkpt>
      <trkpt lat="43.43637" lon="3.44159">
        <ele>-42</ele>
        <time>2012-05-11T12:18:27</time>
      </trkpt>
      <trkpt lat="43.43647" lon="3.4419">
        <ele>-43</ele>
        <time>2012-05-11T12:18:57</time>
      </trkpt>
      <trkpt lat="43.43654" lon="3.44187">
        <ele>-43</ele>
        <time>2012-05-11T12:19:27</time>
      </trkpt>
      <trkpt lat="43.4365" lon="3.44189">
        <ele>-43</ele>
        <time>2012-05-11T12:19:57</time>
      </trkpt>
      <trkpt lat="43.43663" lon="3.44218">
        <ele>-42</ele>
        <time>2012-05-11T12:20:28</time>
      </trkpt>
      <trkpt lat="43.43682" lon="3.4425">
        <ele>-42</ele>
        <time>2012-05-11T12:20:58</time>
      </trkpt>
      <trkpt lat="43.43712" lon="3.44285">
        <ele>-40</ele>
        <time>2012-05-11T12:21:28</time>
      </trkpt>
      <trkpt lat="43.43739" lon="3.44316">
        <ele>-40</ele>
        <time>2012-05-11T12:21:58</time>
      </trkpt>
      <trkpt lat="43.43768" lon="3.4434">
        <ele>-36</ele>
        <time>2012-05-11T12:22:29</time>
      </trkpt>
      <trkpt lat="43.43797" lon="3.44353">
        <ele>-34</ele>
        <time>2012-05-11T12:22:59</time>
      </trkpt>
      <trkpt lat="43.43815" lon="3.44389">
        <ele>-32</ele>
        <time>2012-05-11T12:23:29</time>
      </trkpt>
      <trkpt lat="43.43823" lon="3.44432">
        <ele>-31</ele>
        <time>2012-05-11T12:23:59</time>
      </trkpt>
      <trkpt lat="43.43829" lon="3.44478">
        <ele>-30</ele>
        <time>2012-05-11T12:24:29</time>
      </trkpt>
      <trkpt lat="43.43839" lon="3.44527">
        <ele>-27</ele>
        <time>2012-05-11T12:24:59</time>
      </trkpt>
      <trkpt lat="43.43866" lon="3.44558">
        <ele>-26</ele>
        <time>2012-05-11T12:25:30</time>
      </trkpt>
      <trkpt lat="43.43893" lon="3.44584">
        <ele>-25</ele>
        <time>2012-05-11T12:26:00</time>
      </trkpt>
      <trkpt lat="43.43909" lon="3.44627">
        <ele>-25</ele>
        <time>2012-05-11T12:26:30</time>
      </trkpt>
      <trkpt lat="43.4392" lon="3.44675">
        <ele>-24</ele>
        <time>2012-05-11T12:27:00</time>
      </trkpt>
      <trkpt lat="43.43929" lon="3.44721">
        <ele>-23</ele>
        <time>2012-05-11T12:27:30</time>
      </trkpt>
      <trkpt lat="43.4394" lon="3.4477">
        <ele>-23</ele>
        <time>2012-05-11T12:28:01</time>
      </trkpt>
      <trkpt lat="43.43955" lon="3.4481">
        <ele>-23</ele>
        <time>2012-05-11T12:28:31</time>
      </trkpt>
      <trkpt lat="43.43983" lon="3.44825">
        <ele>-22</ele>
        <time>2012-05-11T12:29:01</time>
      </trkpt>
      <trkpt lat="43.44014" lon="3.44818">
        <ele>-25</ele>
        <time>2012-05-11T12:29:31</time>
      </trkpt>
      <trkpt lat="43.44042" lon="3.44844">
        <ele>-27</ele>
        <time>2012-05-11T12:30:01</time>
      </trkpt>
      <trkpt lat="43.44043" lon="3.44891">
        <ele>-27</ele>
        <time>2012-05-11T12:30:31</time>
      </trkpt>
      <trkpt lat="43.44048" lon="3.44939">
        <ele>-28</ele>
        <time>2012-05-11T12:31:02</time>
      </trkpt>
      <trkpt lat="43.44063" lon="3.4498">
        <ele>-28</ele>
        <time>2012-05-11T12:31:32</time>
      </trkpt>
      <trkpt lat="43.44088" lon="3.45007">
        <ele>-29</ele>
        <time>2012-05-11T12:32:02</time>
      </trkpt>
      <trkpt lat="43.4412" lon="3.45025">
        <ele>-32</ele>
        <time>2012-05-11T12:32:32</time>
      </trkpt>
      <trkpt lat="43.44153" lon="3.45042">
        <ele>-32</ele>
        <time>2012-05-11T12:33:02</time>
      </trkpt>
      <trkpt lat="43.44185" lon="3.45073">
        <ele>-33</ele>
        <time>2012-05-11T12:33:32</time>
      </trkpt>
      <trkpt lat="43.44192" lon="3.45084">
        <ele>-35</ele>
        <time>2012-05-11T12:34:03</time>
      </trkpt>
      <trkpt lat="43.44191" lon="3.451">
        <ele>-35</ele>
        <time>2012-05-11T12:34:33</time>
      </trkpt>
      <trkpt lat="43.44172" lon="3.45133">
        <ele>-39</ele>
        <time>2012-05-11T12:35:03</time>
      </trkpt>
      <trkpt lat="43.44152" lon="3.45169">
        <ele>-42</ele>
        <time>2012-05-11T12:35:33</time>
      </trkpt>
      <trkpt lat="43.44131" lon="3.45205">
        <ele>-44</ele>
        <time>2012-05-11T12:36:03</time>
      </trkpt>
      <trkpt lat="43.44112" lon="3.45239">
        <ele>-47</ele>
        <time>2012-05-11T12:36:33</time>
      </trkpt>
      <trkpt lat="43.44095" lon="3.45265">
        <ele>-48</ele>
        <time>2012-05-11T12:37:04</time>
      </trkpt>
      <trkpt lat="43.44085" lon="3.45273">
        <ele>-49</ele>
        <time>2012-05-11T12:37:34</time>
      </trkpt>
      <trkpt lat="43.44075" lon="3.45286">
        <ele>-51</ele>
        <time>2012-05-11T12:38:04</time>
      </trkpt>
      <trkpt lat="43.44067" lon="3.4531">
        <ele>-54</ele>
        <time>2012-05-11T12:38:34</time>
      </trkpt>
      <trkpt lat="43.44054" lon="3.45344">
        <ele>-56</ele>
        <time>2012-05-11T12:39:05</time>
      </trkpt>
      <trkpt lat="43.4405" lon="3.45374">
        <ele>-55</ele>
        <time>2012-05-11T12:39:35</time>
      </trkpt>
      <trkpt lat="43.4406" lon="3.4539">
        <ele>-54</ele>
        <time>2012-05-11T12:40:05</time>
      </trkpt>
      <trkpt lat="43.44073" lon="3.45404">
        <ele>-52</ele>
        <time>2012-05-11T12:40:35</time>
      </trkpt>
      <trkpt lat="43.44084" lon="3.45412">
        <ele>-50</ele>
        <time>2012-05-11T12:41:05</time>
      </trkpt>
      <trkpt lat="43.44095" lon="3.4543">
        <ele>-49</ele>
        <time>2012-05-11T12:41:36</time>
      </trkpt>
      <trkpt lat="43.44114" lon="3.45456">
        <ele>-49</ele>
        <time>2012-05-11T12:42:06</time>
      </trkpt>
      <trkpt lat="43.44126" lon="3.45472">
        <ele>-50</ele>
        <time>2012-05-11T12:42:36</time>
      </trkpt>
      <trkpt lat="43.44138" lon="3.45478">
        <ele>-51</ele>
        <time>2012-05-11T12:43:06</time>
      </trkpt>
      <trkpt lat="43.44138" lon="3.4549">
        <ele>-50</ele>
        <time>2012-05-11T12:43:36</time>
      </trkpt>
      <trkpt lat="43.4413" lon="3.45496">
        <ele>-50</ele>
        <time>2012-05-11T12:44:07</time>
      </trkpt>
      <trkpt lat="43.44127" lon="3.45498">
        <ele>-50</ele>
        <time>2012-05-11T12:44:37</time>
      </trkpt>
      <trkpt lat="43.44131" lon="3.45498">
        <ele>-50</ele>
        <time>2012-05-11T12:45:07</time>
      </trkpt>
      <trkpt lat="43.44128" lon="3.45494">
        <ele>-51</ele>
        <time>2012-05-11T12:45:37</time>
      </trkpt>
      <trkpt lat="43.44129" lon="3.45495">
        <ele>-51</ele>
        <time>2012-05-11T12:46:07</time>
      </trkpt>
      <trkpt lat="43.44126" lon="3.45514">
        <ele>-47</ele>
        <time>2012-05-11T12:46:37</time>
      </trkpt>
      <trkpt lat="43.44113" lon="3.45553">
        <ele>-47</ele>
        <time>2012-05-11T12:47:08</time>
      </trkpt>
      <trkpt lat="43.44105" lon="3.4559">
        <ele>-45</ele>
        <time>2012-05-11T12:47:38</time>
      </trkpt>
      <trkpt lat="43.44093" lon="3.45622">
        <ele>-42</ele>
        <time>2012-05-11T12:48:08</time>
      </trkpt>
      <trkpt lat="43.44067" lon="3.45663">
        <ele>-40</ele>
        <time>2012-05-11T12:48:38</time>
      </trkpt>
      <trkpt lat="43.44064" lon="3.45698">
        <ele>-39</ele>
        <time>2012-05-11T12:49:08</time>
      </trkpt>
      <trkpt lat="43.44074" lon="3.45733">
        <ele>-40</ele>
        <time>2012-05-11T12:49:39</time>
      </trkpt>
      <trkpt lat="43.44093" lon="3.45779">
        <ele>-40</ele>
        <time>2012-05-11T12:50:09</time>
      </trkpt>
      <trkpt lat="43.44108" lon="3.45821">
        <ele>-40</ele>
        <time>2012-05-11T12:50:39</time>
      </trkpt>
      <trkpt lat="43.4413" lon="3.45855">
        <ele>-37</ele>
        <time>2012-05-11T12:51:09</time>
      </trkpt>
      <trkpt lat="43.44147" lon="3.4588">
        <ele>-35</ele>
        <time>2012-05-11T12:51:39</time>
      </trkpt>
      <trkpt lat="43.44163" lon="3.4591">
        <ele>-33</ele>
        <time>2012-05-11T12:52:10</time>
      </trkpt>
      <trkpt lat="43.44183" lon="3.45945">
        <ele>-32</ele>
        <time>2012-05-11T12:52:40</time>
      </trkpt>
      <trkpt lat="43.44213" lon="3.45964">
        <ele>-32</ele>
        <time>2012-05-11T12:53:10</time>
      </trkpt>
      <trkpt lat="43.44238" lon="3.45982">
        <ele>-30</ele>
        <time>2012-05-11T12:53:40</time>
      </trkpt>
      <trkpt lat="43.44262" lon="3.46013">
        <ele>-29</ele>
        <time>2012-05-11T12:54:10</time>
      </trkpt>
      <trkpt lat="43.44284" lon="3.46035">
        <ele>-27</ele>
        <time>2012-05-11T12:54:40</time>
      </trkpt>
      <trkpt lat="43.44312" lon="3.46059">
        <ele>-25</ele>
        <time>2012-05-11T12:55:11</time>
      </trkpt>
      <trkpt lat="43.44336" lon="3.46086">
        <ele>-24</ele>
        <time>2012-05-11T12:55:41</time>
      </trkpt>
      <trkpt lat="43.44351" lon="3.46127">
        <ele>-21</ele>
        <time>2012-05-11T12:56:11</time>
      </trkpt>
      <trkpt lat="43.44362" lon="3.46163">
        <ele>-21</ele>
        <time>2012-05-11T12:56:41</time>
      </trkpt>
      <trkpt lat="43.44372" lon="3.46199">
        <ele>-21</ele>
        <time>2012-05-11T12:57:11</time>
      </trkpt>
      <trkpt lat="43.44381" lon="3.46246">
        <ele>-22</ele>
        <time>2012-05-11T12:57:42</time>
      </trkpt>
      <trkpt lat="43.44388" lon="3.46281">
        <ele>-20</ele>
        <time>2012-05-11T12:58:12</time>
      </trkpt>
      <trkpt lat="43.44407" lon="3.46315">
        <ele>-19</ele>
        <time>2012-05-11T12:58:42</time>
      </trkpt>
      <trkpt lat="43.44424" lon="3.46354">
        <ele>-17</ele>
        <time>2012-05-11T12:59:12</time>
      </trkpt>
      <trkpt lat="43.4443" lon="3.46401">
        <ele>-18</ele>
        <time>2012-05-11T12:59:43</time>
      </trkpt>
      <trkpt lat="43.44431" lon="3.46412">
        <ele>-17</ele>
        <time>2012-05-11T13:00:13</time>
      </trkpt>
      <trkpt lat="43.44432" lon="3.46412">
        <ele>-18</ele>
        <time>2012-05-11T13:00:43</time>
      </trkpt>
      <trkpt lat="43.44435" lon="3.4641">
        <ele>-18</ele>
        <time>2012-05-11T13:01:13</time>
      </trkpt>
      <trkpt lat="43.44432" lon="3.46424">
        <ele>-17</ele>
        <time>2012-05-11T13:01:43</time>
      </trkpt>
      <trkpt lat="43.44437" lon="3.46462">
        <ele>-17</ele>
        <time>2012-05-11T13:02:13</time>
      </trkpt>
      <trkpt lat="43.44459" lon="3.46479">
        <ele>-16</ele>
        <time>2012-05-11T13:02:44</time>
      </trkpt>
      <trkpt lat="43.44481" lon="3.46512">
        <ele>-16</ele>
        <time>2012-05-11T13:03:14</time>
      </trkpt>
      <trkpt lat="43.44481" lon="3.46542">
        <ele>-15</ele>
        <time>2012-05-11T13:03:44</time>
      </trkpt>
      <trkpt lat="43.44467" lon="3.46582">
        <ele>-16</ele>
        <time>2012-05-11T13:04:14</time>
      </trkpt>
      <trkpt lat="43.44455" lon="3.46623">
        <ele>-15</ele>
        <time>2012-05-11T13:04:44</time>
      </trkpt>
      <trkpt lat="43.4444" lon="3.46663">
        <ele>-17</ele>
        <time>2012-05-11T13:05:15</time>
      </trkpt>
      <trkpt lat="43.44433" lon="3.46711">
        <ele>-15</ele>
        <time>2012-05-11T13:05:45</time>
      </trkpt>
      <trkpt lat="43.44433" lon="3.46756">
        <ele>-16</ele>
        <time>2012-05-11T13:06:15</time>
      </trkpt>
      <trkpt lat="43.44442" lon="3.46798">
        <ele>-17</ele>
        <time>2012-05-11T13:06:45</time>
      </trkpt>
      <trkpt lat="43.44456" lon="3.46839">
        <ele>-17</ele>
        <time>2012-05-11T13:07:15</time>
      </trkpt>
      <trkpt lat="43.44475" lon="3.46871">
        <ele>-15</ele>
        <time>2012-05-11T13:07:45</time>
      </trkpt>
      <trkpt lat="43.44487" lon="3.46894">
        <ele>-13</ele>
        <time>2012-05-11T13:08:16</time>
      </trkpt>
      <trkpt lat="43.44497" lon="3.46937">
        <ele>-13</ele>
        <time>2012-05-11T13:08:46</time>
      </trkpt>
      <trkpt lat="43.44503" lon="3.46975">
        <ele>-10</ele>
        <time>2012-05-11T13:09:16</time>
      </trkpt>
      <trkpt lat="43.44509" lon="3.47009">
        <ele>-12</ele>
        <time>2012-05-11T13:09:46</time>
      </trkpt>
      <trkpt lat="43.44511" lon="3.47011">
        <ele>-12</ele>
        <time>2012-05-11T13:10:17</time>
      </trkpt>
      <trkpt lat="43.44514" lon="3.47012">
        <ele>-11</ele>
        <time>2012-05-11T13:10:47</time>
      </trkpt>
      <trkpt lat="43.4451" lon="3.47012">
        <ele>-11</ele>
        <time>2012-05-11T13:11:17</time>
      </trkpt>
      <trkpt lat="43.44514" lon="3.47012">
        <ele>-11</ele>
        <time>2012-05-11T13:11:47</time>
      </trkpt>
      <trkpt lat="43.44518" lon="3.47012">
        <ele>-12</ele>
        <time>2012-05-11T13:12:17</time>
      </trkpt>
      <trkpt lat="43.44517" lon="3.47048">
        <ele>-12</ele>
        <time>2012-05-11T13:12:48</time>
      </trkpt>
      <trkpt lat="43.44505" lon="3.47082">
        <ele>-14</ele>
        <time>2012-05-11T13:13:18</time>
      </trkpt>
      <trkpt lat="43.44512" lon="3.47125">
        <ele>-13</ele>
        <time>2012-05-11T13:13:48</time>
      </trkpt>
      <trkpt lat="43.44521" lon="3.47157">
        <ele>-13</ele>
        <time>2012-05-11T13:14:18</time>
      </trkpt>
      <trkpt lat="43.44529" lon="3.47198">
        <ele>-11</ele>
        <time>2012-05-11T13:14:48</time>
      </trkpt>
      <trkpt lat="43.44526" lon="3.47244">
        <ele>-9</ele>
        <time>2012-05-11T13:15:18</time>
      </trkpt>
      <trkpt lat="43.44528" lon="3.47288">
        <ele>-9</ele>
        <time>2012-05-11T13:15:49</time>
      </trkpt>
      <trkpt lat="43.4452" lon="3.47325">
        <ele>-11</ele>
        <time>2012-05-11T13:16:19</time>
      </trkpt>
      <trkpt lat="43.44499" lon="3.4736">
        <ele>-11</ele>
        <time>2012-05-11T13:16:49</time>
      </trkpt>
      <trkpt lat="43.44469" lon="3.47376">
        <ele>-10</ele>
        <time>2012-05-11T13:17:19</time>
      </trkpt>
      <trkpt lat="43.44433" lon="3.47362">
        <ele>-11</ele>
        <time>2012-05-11T13:17:50</time>
      </trkpt>
      <trkpt lat="43.44411" lon="3.47388">
        <ele>-11</ele>
        <time>2012-05-11T13:18:20</time>
      </trkpt>
      <trkpt lat="43.44407" lon="3.47436">
        <ele>-10</ele>
        <time>2012-05-11T13:18:50</time>
      </trkpt>
      <trkpt lat="43.44392" lon="3.47469">
        <ele>-7</ele>
        <time>2012-05-11T13:19:20</time>
      </trkpt>
      <trkpt lat="43.44358" lon="3.47485">
        <ele>-9</ele>
        <time>2012-05-11T13:19:51</time>
      </trkpt>
      <trkpt lat="43.44331" lon="3.4751">
        <ele>-8</ele>
        <time>2012-05-11T13:20:21</time>
      </trkpt>
      <trkpt lat="43.44305" lon="3.47545">
        <ele>-8</ele>
        <time>2012-05-11T13:20:51</time>
      </trkpt>
      <trkpt lat="43.44292" lon="3.47589">
        <ele>-8</ele>
        <time>2012-05-11T13:21:21</time>
      </trkpt>
      <trkpt lat="43.44282" lon="3.47633">
        <ele>-12</ele>
        <time>2012-05-11T13:21:51</time>
      </trkpt>
      <trkpt lat="43.44272" lon="3.47672">
        <ele>-12</ele>
        <time>2012-05-11T13:22:22</time>
      </trkpt>
      <trkpt lat="43.44262" lon="3.47709">
        <ele>-13</ele>
        <time>2012-05-11T13:22:52</time>
      </trkpt>
      <trkpt lat="43.44265" lon="3.47722">
        <ele>-13</ele>
        <time>2012-05-11T13:23:22</time>
      </trkpt>
      <trkpt lat="43.44263" lon="3.4772">
        <ele>-13</ele>
        <time>2012-05-11T13:23:52</time>
      </trkpt>
      <trkpt lat="43.44261" lon="3.47739">
        <ele>-13</ele>
        <time>2012-05-11T13:24:22</time>
      </trkpt>
      <trkpt lat="43.44236" lon="3.4774">
        <ele>-14</ele>
        <time>2012-05-11T13:24:52</time>
      </trkpt>
      <trkpt lat="43.44209" lon="3.47731">
        <ele>-16</ele>
        <time>2012-05-11T13:25:23</time>
      </trkpt>
      <trkpt lat="43.4418" lon="3.47728">
        <ele>-19</ele>
        <time>2012-05-11T13:25:53</time>
      </trkpt>
      <trkpt lat="43.44143" lon="3.4773">
        <ele>-21</ele>
        <time>2012-05-11T13:26:23</time>
      </trkpt>
      <trkpt lat="43.44117" lon="3.4774">
        <ele>-21</ele>
        <time>2012-05-11T13:26:53</time>
      </trkpt>
      <trkpt lat="43.44089" lon="3.47734">
        <ele>-24</ele>
        <time>2012-05-11T13:27:23</time>
      </trkpt>
      <trkpt lat="43.44043" lon="3.47728">
        <ele>-25</ele>
        <time>2012-05-11T13:27:54</time>
      </trkpt>
      <trkpt lat="43.44009" lon="3.47734">
        <ele>-25</ele>
        <time>2012-05-11T13:28:24</time>
      </trkpt>
      <trkpt lat="43.43973" lon="3.47745">
        <ele>-26</ele>
        <time>2012-05-11T13:28:54</time>
      </trkpt>
      <trkpt lat="43.43945" lon="3.47726">
        <ele>-25</ele>
        <time>2012-05-11T13:29:24</time>
      </trkpt>
      <trkpt lat="43.43929" lon="3.47723">
        <ele>-24</ele>
        <time>2012-05-11T13:29:54</time>
      </trkpt>
      <trkpt lat="43.43911" lon="3.47686">
        <ele>-26</ele>
        <time>2012-05-11T13:30:25</time>
      </trkpt>
      <trkpt lat="43.43906" lon="3.47649">
        <ele>-26</ele>
        <time>2012-05-11T13:30:55</time>
      </trkpt>
      <trkpt lat="43.43895" lon="3.47605">
        <ele>-29</ele>
        <time>2012-05-11T13:31:25</time>
      </trkpt>
      <trkpt lat="43.43866" lon="3.47612">
        <ele>-28</ele>
        <time>2012-05-11T13:31:55</time>
      </trkpt>
      <trkpt lat="43.43838" lon="3.47624">
        <ele>-28</ele>
        <time>2012-05-11T13:32:25</time>
      </trkpt>
      <trkpt lat="43.4381" lon="3.47605">
        <ele>-28</ele>
        <time>2012-05-11T13:32:56</time>
      </trkpt>
      <trkpt lat="43.43777" lon="3.47589">
        <ele>-29</ele>
        <time>2012-05-11T13:33:26</time>
      </trkpt>
      <trkpt lat="43.43746" lon="3.47561">
        <ele>-30</ele>
        <time>2012-05-11T13:33:56</time>
      </trkpt>
      <trkpt lat="43.43713" lon="3.47539">
        <ele>-31</ele>
        <time>2012-05-11T13:34:26</time>
      </trkpt>
      <trkpt lat="43.43688" lon="3.47513">
        <ele>-34</ele>
        <time>2012-05-11T13:34:56</time>
      </trkpt>
      <trkpt lat="43.43659" lon="3.47484">
        <ele>-33</ele>
        <time>2012-05-11T13:35:27</time>
      </trkpt>
      <trkpt lat="43.43626" lon="3.47467">
        <ele>-34</ele>
        <time>2012-05-11T13:35:57</time>
      </trkpt>
      <trkpt lat="43.43594" lon="3.47452">
        <ele>-32</ele>
        <time>2012-05-11T13:36:27</time>
      </trkpt>
      <trkpt lat="43.43564" lon="3.4743">
        <ele>-33</ele>
        <time>2012-05-11T13:36:58</time>
      </trkpt>
      <trkpt lat="43.43548" lon="3.47385">
        <ele>-34</ele>
        <time>2012-05-11T13:37:28</time>
      </trkpt>
      <trkpt lat="43.43542" lon="3.47344">
        <ele>-34</ele>
        <time>2012-05-11T13:37:58</time>
      </trkpt>
      <trkpt lat="43.43547" lon="3.47295">
        <ele>-35</ele>
        <time>2012-05-11T13:38:28</time>
      </trkpt>
      <trkpt lat="43.43544" lon="3.47246">
        <ele>-36</ele>
        <time>2012-05-11T13:38:58</time>
      </trkpt>
      <trkpt lat="43.4355" lon="3.47193">
        <ele>-37</ele>
        <time>2012-05-11T13:39:28</time>
      </trkpt>
      <trkpt lat="43.4355" lon="3.4714">
        <ele>-37</ele>
        <time>2012-05-11T13:39:59</time>
      </trkpt>
      <trkpt lat="43.43551" lon="3.4709">
        <ele>-36</ele>
        <time>2012-05-11T13:40:29</time>
      </trkpt>
      <trkpt lat="43.4355" lon="3.47041">
        <ele>-36</ele>
        <time>2012-05-11T13:40:59</time>
      </trkpt>
      <trkpt lat="43.43533" lon="3.47005">
        <ele>-34</ele>
        <time>2012-05-11T13:41:29</time>
      </trkpt>
      <trkpt lat="43.43531" lon="3.46994">
        <ele>-34</ele>
        <time>2012-05-11T13:42:00</time>
      </trkpt>
      <trkpt lat="43.43516" lon="3.46974">
        <ele>-36</ele>
        <time>2012-05-11T13:42:30</time>
      </trkpt>
      <trkpt lat="43.435" lon="3.46944">
        <ele>-39</ele>
        <time>2012-05-11T13:43:00</time>
      </trkpt>
      <trkpt lat="43.43491" lon="3.46902">
        <ele>-40</ele>
        <time>2012-05-11T13:43:30</time>
      </trkpt>
      <trkpt lat="43.43485" lon="3.4686">
        <ele>-39</ele>
        <time>2012-05-11T13:44:00</time>
      </trkpt>
      <trkpt lat="43.43494" lon="3.46824">
        <ele>-41</ele>
        <time>2012-05-11T13:44:30</time>
      </trkpt>
      <trkpt lat="43.43522" lon="3.46803">
        <ele>-41</ele>
        <time>2012-05-11T13:45:01</time>
      </trkpt>
      <trkpt lat="43.43555" lon="3.46781">
        <ele>-42</ele>
        <time>2012-05-11T13:45:31</time>
      </trkpt>
      <trkpt lat="43.43583" lon="3.46762">
        <ele>-43</ele>
        <time>2012-05-11T13:46:01</time>
      </trkpt>
      <trkpt lat="43.43611" lon="3.46733">
        <ele>-45</ele>
        <time>2012-05-11T13:46:31</time>
      </trkpt>
      <trkpt lat="43.43641" lon="3.46715">
        <ele>-46</ele>
        <time>2012-05-11T13:47:02</time>
      </trkpt>
      <trkpt lat="43.43662" lon="3.4669">
        <ele>-45</ele>
        <time>2012-05-11T13:47:32</time>
      </trkpt>
      <trkpt lat="43.43683" lon="3.4666">
        <ele>-47</ele>
        <time>2012-05-11T13:48:02</time>
      </trkpt>
      <trkpt lat="43.437" lon="3.46626">
        <ele>-47</ele>
        <time>2012-05-11T13:48:32</time>
      </trkpt>
      <trkpt lat="43.4372" lon="3.4659">
        <ele>-48</ele>
        <time>2012-05-11T13:49:03</time>
      </trkpt>
      <trkpt lat="43.43737" lon="3.46551">
        <ele>-48</ele>
        <time>2012-05-11T13:49:33</time>
      </trkpt>
      <trkpt lat="43.43751" lon="3.46514">
        <ele>-46</ele>
        <time>2012-05-11T13:50:03</time>
      </trkpt>
      <trkpt lat="43.43776" lon="3.46479">
        <ele>-45</ele>
        <time>2012-05-11T13:50:33</time>
      </trkpt>
      <trkpt lat="43.43783" lon="3.4646">
        <ele>-45</ele>
        <time>2012-05-11T13:51:03</time>
      </trkpt>
      <trkpt lat="43.43787" lon="3.46459">
        <ele>-44</ele>
        <time>2012-05-11T13:51:34</time>
      </trkpt>
      <trkpt lat="43.43784" lon="3.46457">
        <ele>-44</ele>
        <time>2012-05-11T13:52:04</time>
      </trkpt>
      <trkpt lat="43.43783" lon="3.46457">
        <ele>-44</ele>
        <time>2012-05-11T13:52:34</time>
      </trkpt>
      <trkpt lat="43.43787" lon="3.46459">
        <ele>-44</ele>
        <time>2012-05-11T13:53:04</time>
      </trkpt>
      <trkpt lat="43.43787" lon="3.46459">
        <ele>-43</ele>
        <time>2012-05-11T13:53:34</time>
      </trkpt>
      <trkpt lat="43.43788" lon="3.46457">
        <ele>-44</ele>
        <time>2012-05-11T13:54:05</time>
      </trkpt>
      <trkpt lat="43.43789" lon="3.46456">
        <ele>-44</ele>
        <time>2012-05-11T13:54:35</time>
      </trkpt>
      <trkpt lat="43.43785" lon="3.46466">
        <ele>-44</ele>
        <time>2012-05-11T13:55:05</time>
      </trkpt>
      <trkpt lat="43.43784" lon="3.46468">
        <ele>-44</ele>
        <time>2012-05-11T13:55:36</time>
      </trkpt>
      <trkpt lat="43.43784" lon="3.46458">
        <ele>-45</ele>
        <time>2012-05-11T13:56:05</time>
      </trkpt>
      <trkpt lat="43.43783" lon="3.46455">
        <ele>-44</ele>
        <time>2012-05-11T13:56:36</time>
      </trkpt>
      <trkpt lat="43.43784" lon="3.46458">
        <ele>-44</ele>
        <time>2012-05-11T13:57:06</time>
      </trkpt>
      <trkpt lat="43.43788" lon="3.46458">
        <ele>-43</ele>
        <time>2012-05-11T13:57:36</time>
      </trkpt>
      <trkpt lat="43.43785" lon="3.4645">
        <ele>-44</ele>
        <time>2012-05-11T13:58:07</time>
      </trkpt>
      <trkpt lat="43.43785" lon="3.46448">
        <ele>-45</ele>
        <time>2012-05-11T13:58:37</time>
      </trkpt>
      <trkpt lat="43.43783" lon="3.4645">
        <ele>-44</ele>
        <time>2012-05-11T13:59:07</time>
      </trkpt>
      <trkpt lat="43.43788" lon="3.46451">
        <ele>-44</ele>
        <time>2012-05-11T13:59:37</time>
      </trkpt>
      <trkpt lat="43.43788" lon="3.4645">
        <ele>-44</ele>
        <time>2012-05-11T14:00:07</time>
      </trkpt>
      <trkpt lat="43.43787" lon="3.46448">
        <ele>-44</ele>
        <time>2012-05-11T14:00:37</time>
      </trkpt>
      <trkpt lat="43.43797" lon="3.46423">
        <ele>-44</ele>
        <time>2012-05-11T14:01:08</time>
      </trkpt>
      <trkpt lat="43.43818" lon="3.46393">
        <ele>-44</ele>
        <time>2012-05-11T14:01:38</time>
      </trkpt>
      <trkpt lat="43.43837" lon="3.46372">
        <ele>-43</ele>
        <time>2012-05-11T14:02:08</time>
      </trkpt>
      <trkpt lat="43.43844" lon="3.46345">
        <ele>-41</ele>
        <time>2012-05-11T14:02:38</time>
      </trkpt>
      <trkpt lat="43.43842" lon="3.4631">
        <ele>-42</ele>
        <time>2012-05-11T14:03:09</time>
      </trkpt>
      <trkpt lat="43.4386" lon="3.46287">
        <ele>-45</ele>
        <time>2012-05-11T14:03:39</time>
      </trkpt>
      <trkpt lat="43.43881" lon="3.46255">
        <ele>-47</ele>
        <time>2012-05-11T14:04:09</time>
      </trkpt>
      <trkpt lat="43.43898" lon="3.46215">
        <ele>-48</ele>
        <time>2012-05-11T14:04:39</time>
      </trkpt>
      <trkpt lat="43.43913" lon="3.46178">
        <ele>-49</ele>
        <time>2012-05-11T14:05:09</time>
      </trkpt>
      <trkpt lat="43.4393" lon="3.46148">
        <ele>-50</ele>
        <time>2012-05-11T14:05:40</time>
      </trkpt>
      <trkpt lat="43.43942" lon="3.46115">
        <ele>-49</ele>
        <time>2012-05-11T14:06:10</time>
      </trkpt>
      <trkpt lat="43.43942" lon="3.46097">
        <ele>-49</ele>
        <time>2012-05-11T14:06:40</time>
      </trkpt>
      <trkpt lat="43.43941" lon="3.46096">
        <ele>-49</ele>
        <time>2012-05-11T14:07:10</time>
      </trkpt>
      <trkpt lat="43.43943" lon="3.46094">
        <ele>-49</ele>
        <time>2012-05-11T14:07:40</time>
      </trkpt>
      <trkpt lat="43.43948" lon="3.46066">
        <ele>-49</ele>
        <time>2012-05-11T14:08:10</time>
      </trkpt>
      <trkpt lat="43.43957" lon="3.46025">
        <ele>-47</ele>
        <time>2012-05-11T14:08:41</time>
      </trkpt>
      <trkpt lat="43.43969" lon="3.45984">
        <ele>-46</ele>
        <time>2012-05-11T14:09:11</time>
      </trkpt>
      <trkpt lat="43.4398" lon="3.45941">
        <ele>-45</ele>
        <time>2012-05-11T14:09:41</time>
      </trkpt>
      <trkpt lat="43.43993" lon="3.459">
        <ele>-44</ele>
        <time>2012-05-11T14:10:11</time>
      </trkpt>
      <trkpt lat="43.44001" lon="3.45867">
        <ele>-41</ele>
        <time>2012-05-11T14:10:41</time>
      </trkpt>
      <trkpt lat="43.44007" lon="3.45829">
        <ele>-37</ele>
        <time>2012-05-11T14:11:12</time>
      </trkpt>
      <trkpt lat="43.44005" lon="3.45798">
        <ele>-39</ele>
        <time>2012-05-11T14:11:42</time>
      </trkpt>
      <trkpt lat="43.44014" lon="3.45754">
        <ele>-39</ele>
        <time>2012-05-11T14:12:12</time>
      </trkpt>
      <trkpt lat="43.44028" lon="3.45712">
        <ele>-38</ele>
        <time>2012-05-11T14:12:42</time>
      </trkpt>
      <trkpt lat="43.44046" lon="3.45683">
        <ele>-37</ele>
        <time>2012-05-11T14:13:12</time>
      </trkpt>
      <trkpt lat="43.44045" lon="3.45686">
        <ele>-37</ele>
        <time>2012-05-11T14:13:42</time>
      </trkpt>
      <trkpt lat="43.44045" lon="3.45686">
        <ele>-36</ele>
        <time>2012-05-11T14:14:13</time>
      </trkpt>
      <trkpt lat="43.44044" lon="3.45686">
        <ele>-38</ele>
        <time>2012-05-11T14:14:43</time>
      </trkpt>
      <trkpt lat="43.44046" lon="3.45687">
        <ele>-37</ele>
        <time>2012-05-11T14:15:13</time>
      </trkpt>
      <trkpt lat="43.44047" lon="3.45684">
        <ele>-36</ele>
        <time>2012-05-11T14:15:43</time>
      </trkpt>
      <trkpt lat="43.44064" lon="3.45656">
        <ele>-35</ele>
        <time>2012-05-11T14:16:13</time>
      </trkpt>
      <trkpt lat="43.44082" lon="3.45622">
        <ele>-38</ele>
        <time>2012-05-11T14:16:44</time>
      </trkpt>
      <trkpt lat="43.44103" lon="3.45588">
        <ele>-40</ele>
        <time>2012-05-11T14:17:14</time>
      </trkpt>
      <trkpt lat="43.44117" lon="3.45542">
        <ele>-43</ele>
        <time>2012-05-11T14:17:44</time>
      </trkpt>
      <trkpt lat="43.44129" lon="3.45497">
        <ele>-44</ele>
        <time>2012-05-11T14:18:14</time>
      </trkpt>
      <trkpt lat="43.44159" lon="3.45476">
        <ele>-47</ele>
        <time>2012-05-11T14:18:44</time>
      </trkpt>
      <trkpt lat="43.44175" lon="3.45436">
        <ele>-46</ele>
        <time>2012-05-11T14:19:14</time>
      </trkpt>
      <trkpt lat="43.44183" lon="3.45393">
        <ele>-44</ele>
        <time>2012-05-11T14:19:45</time>
      </trkpt>
      <trkpt lat="43.44199" lon="3.45355">
        <ele>-41</ele>
        <time>2012-05-11T14:20:15</time>
      </trkpt>
      <trkpt lat="43.44222" lon="3.4532">
        <ele>-39</ele>
        <time>2012-05-11T14:20:45</time>
      </trkpt>
      <trkpt lat="43.44241" lon="3.45285">
        <ele>-36</ele>
        <time>2012-05-11T14:21:15</time>
      </trkpt>
      <trkpt lat="43.4426" lon="3.45252">
        <ele>-34</ele>
        <time>2012-05-11T14:21:46</time>
      </trkpt>
      <trkpt lat="43.44278" lon="3.45215">
        <ele>-32</ele>
        <time>2012-05-11T14:22:15</time>
      </trkpt>
      <trkpt lat="43.44286" lon="3.45194">
        <ele>-31</ele>
        <time>2012-05-11T14:22:46</time>
      </trkpt>
      <trkpt lat="43.44286" lon="3.45194">
        <ele>-31</ele>
        <time>2012-05-11T14:23:16</time>
      </trkpt>
      <trkpt lat="43.44285" lon="3.45192">
        <ele>-31</ele>
        <time>2012-05-11T14:23:46</time>
      </trkpt>
      <trkpt lat="43.44286" lon="3.45193">
        <ele>-31</ele>
        <time>2012-05-11T14:24:16</time>
      </trkpt>
      <trkpt lat="43.44287" lon="3.45191">
        <ele>-31</ele>
        <time>2012-05-11T14:24:46</time>
      </trkpt>
      <trkpt lat="43.4429" lon="3.45191">
        <ele>-31</ele>
        <time>2012-05-11T14:25:17</time>
      </trkpt>
      <trkpt lat="43.44305" lon="3.4519">
        <ele>-31</ele>
        <time>2012-05-11T14:25:47</time>
      </trkpt>
      <trkpt lat="43.44333" lon="3.45193">
        <ele>-29</ele>
        <time>2012-05-11T14:26:17</time>
      </trkpt>
      <trkpt lat="43.44361" lon="3.45186">
        <ele>-27</ele>
        <time>2012-05-11T14:26:47</time>
      </trkpt>
      <trkpt lat="43.44388" lon="3.45168">
        <ele>-22</ele>
        <time>2012-05-11T14:27:17</time>
      </trkpt>
      <trkpt lat="43.44407" lon="3.45144">
        <ele>-22</ele>
        <time>2012-05-11T14:27:48</time>
      </trkpt>
      <trkpt lat="43.44438" lon="3.4512">
        <ele>-21</ele>
        <time>2012-05-11T14:28:18</time>
      </trkpt>
      <trkpt lat="43.4447" lon="3.45105">
        <ele>-22</ele>
        <time>2012-05-11T14:28:48</time>
      </trkpt>
      <trkpt lat="43.44502" lon="3.45083">
        <ele>-22</ele>
        <time>2012-05-11T14:29:18</time>
      </trkpt>
      <trkpt lat="43.44535" lon="3.45092">
        <ele>-22</ele>
        <time>2012-05-11T14:29:49</time>
      </trkpt>
      <trkpt lat="43.44562" lon="3.45109">
        <ele>-24</ele>
        <time>2012-05-11T14:30:19</time>
      </trkpt>
      <trkpt lat="43.44587" lon="3.45113">
        <ele>-28</ele>
        <time>2012-05-11T14:30:49</time>
      </trkpt>
      <trkpt lat="43.44618" lon="3.45122">
        <ele>-31</ele>
        <time>2012-05-11T14:31:19</time>
      </trkpt>
      <trkpt lat="43.44639" lon="3.45106">
        <ele>-33</ele>
        <time>2012-05-11T14:31:49</time>
      </trkpt>
      <trkpt lat="43.44647" lon="3.45075">
        <ele>-36</ele>
        <time>2012-05-11T14:32:19</time>
      </trkpt>
      <trkpt lat="43.44638" lon="3.45033">
        <ele>-35</ele>
        <time>2012-05-11T14:32:50</time>
      </trkpt>
      <trkpt lat="43.44652" lon="3.44992">
        <ele>-34</ele>
        <time>2012-05-11T14:33:20</time>
      </trkpt>
      <trkpt lat="43.4467" lon="3.44951">
        <ele>-33</ele>
        <time>2012-05-11T14:33:50</time>
      </trkpt>
      <trkpt lat="43.44676" lon="3.44911">
        <ele>-34</ele>
        <time>2012-05-11T14:34:20</time>
      </trkpt>
      <trkpt lat="43.44681" lon="3.44869">
        <ele>-34</ele>
        <time>2012-05-11T14:34:50</time>
      </trkpt>
      <trkpt lat="43.44695" lon="3.44826">
        <ele>-35</ele>
        <time>2012-05-11T14:35:21</time>
      </trkpt>
      <trkpt lat="43.44704" lon="3.44784">
        <ele>-32</ele>
        <time>2012-05-11T14:35:51</time>
      </trkpt>
      <trkpt lat="43.44711" lon="3.4474">
        <ele>-30</ele>
        <time>2012-05-11T14:36:21</time>
      </trkpt>
      <trkpt lat="43.44714" lon="3.44725">
        <ele>-29</ele>
        <time>2012-05-11T14:36:51</time>
      </trkpt>
      <trkpt lat="43.44716" lon="3.44727">
        <ele>-29</ele>
        <time>2012-05-11T14:37:21</time>
      </trkpt>
      <trkpt lat="43.44716" lon="3.44728">
        <ele>-29</ele>
        <time>2012-05-11T14:37:52</time>
      </trkpt>
      <trkpt lat="43.44726" lon="3.44712">
        <ele>-28</ele>
        <time>2012-05-11T14:38:22</time>
      </trkpt>
      <trkpt lat="43.44741" lon="3.44687">
        <ele>-24</ele>
        <time>2012-05-11T14:38:52</time>
      </trkpt>
      <trkpt lat="43.44746" lon="3.44668">
        <ele>-22</ele>
        <time>2012-05-11T14:39:22</time>
      </trkpt>
      <trkpt lat="43.44754" lon="3.44629">
        <ele>-20</ele>
        <time>2012-05-11T14:39:53</time>
      </trkpt>
      <trkpt lat="43.44755" lon="3.44623">
        <ele>-19</ele>
        <time>2012-05-11T14:40:22</time>
      </trkpt>
      <trkpt lat="43.44758" lon="3.44624">
        <ele>-20</ele>
        <time>2012-05-11T14:40:53</time>
      </trkpt>
      <trkpt lat="43.4475" lon="3.44604">
        <ele>-20</ele>
        <time>2012-05-11T14:41:23</time>
      </trkpt>
      <trkpt lat="43.44748" lon="3.44598">
        <ele>-19</ele>
        <time>2012-05-11T14:41:53</time>
      </trkpt>
      <trkpt lat="43.44747" lon="3.44599">
        <ele>-19</ele>
        <time>2012-05-11T14:42:23</time>
      </trkpt>
      <trkpt lat="43.44748" lon="3.446">
        <ele>-19</ele>
        <time>2012-05-11T14:42:53</time>
      </trkpt>
      <trkpt lat="43.44748" lon="3.44595">
        <ele>-19</ele>
        <time>2012-05-11T14:43:24</time>
      </trkpt>
      <trkpt lat="43.44748" lon="3.44594">
        <ele>-19</ele>
        <time>2012-05-11T14:43:54</time>
      </trkpt>
      <trkpt lat="43.44749" lon="3.44573">
        <ele>-20</ele>
        <time>2012-05-11T14:44:24</time>
      </trkpt>
      <trkpt lat="43.44749" lon="3.44568">
        <ele>-20</ele>
        <time>2012-05-11T14:44:54</time>
      </trkpt>
      <trkpt lat="43.44735" lon="3.44559">
        <ele>-22</ele>
        <time>2012-05-11T14:45:24</time>
      </trkpt>
      <trkpt lat="43.44719" lon="3.44559">
        <ele>-26</ele>
        <time>2012-05-11T14:45:54</time>
      </trkpt>
      <trkpt lat="43.44698" lon="3.44541">
        <ele>-30</ele>
        <time>2012-05-11T14:46:25</time>
      </trkpt>
      <trkpt lat="43.44674" lon="3.44521">
        <ele>-35</ele>
        <time>2012-05-11T14:46:55</time>
      </trkpt>
      <trkpt lat="43.4465" lon="3.44505">
        <ele>-40</ele>
        <time>2012-05-11T14:47:25</time>
      </trkpt>
      <trkpt lat="43.44626" lon="3.44476">
        <ele>-43</ele>
        <time>2012-05-11T14:47:55</time>
      </trkpt>
      <trkpt lat="43.44597" lon="3.44451">
        <ele>-49</ele>
        <time>2012-05-11T14:48:26</time>
      </trkpt>
      <trkpt lat="43.44566" lon="3.44422">
        <ele>-52</ele>
        <time>2012-05-11T14:48:56</time>
      </trkpt>
      <trkpt lat="43.44539" lon="3.44399">
        <ele>-56</ele>
        <time>2012-05-11T14:49:26</time>
      </trkpt>
      <trkpt lat="43.44516" lon="3.44376">
        <ele>-60</ele>
        <time>2012-05-11T14:49:56</time>
      </trkpt>
      <trkpt lat="43.44498" lon="3.44334">
        <ele>-61</ele>
        <time>2012-05-11T14:50:26</time>
      </trkpt>
      <trkpt lat="43.44467" lon="3.4431">
        <ele>-63</ele>
        <time>2012-05-11T14:50:56</time>
      </trkpt>
      <trkpt lat="43.44433" lon="3.44304">
        <ele>-67</ele>
        <time>2012-05-11T14:51:27</time>
      </trkpt>
      <trkpt lat="43.44402" lon="3.44315">
        <ele>-69</ele>
        <time>2012-05-11T14:51:57</time>
      </trkpt>
      <trkpt lat="43.44365" lon="3.44324">
        <ele>-69</ele>
        <time>2012-05-11T14:52:27</time>
      </trkpt>
      <trkpt lat="43.44334" lon="3.44332">
        <ele>-68</ele>
        <time>2012-05-11T14:52:57</time>
      </trkpt>
      <trkpt lat="43.44302" lon="3.44324">
        <ele>-66</ele>
        <time>2012-05-11T14:53:27</time>
      </trkpt>
      <trkpt lat="43.44275" lon="3.44301">
        <ele>-63</ele>
        <time>2012-05-11T14:53:58</time>
      </trkpt>
      <trkpt lat="43.44259" lon="3.44291">
        <ele>-62</ele>
        <time>2012-05-11T14:54:28</time>
      </trkpt>
      <trkpt lat="43.44233" lon="3.44285">
        <ele>-62</ele>
        <time>2012-05-11T14:54:58</time>
      </trkpt>
      <trkpt lat="43.44208" lon="3.4427">
        <ele>-63</ele>
        <time>2012-05-11T14:55:28</time>
      </trkpt>
      <trkpt lat="43.44183" lon="3.44262">
        <ele>-62</ele>
        <time>2012-05-11T14:55:58</time>
      </trkpt>
      <trkpt lat="43.44155" lon="3.44238">
        <ele>-63</ele>
        <time>2012-05-11T14:56:28</time>
      </trkpt>
      <trkpt lat="43.44128" lon="3.44212">
        <ele>-62</ele>
        <time>2012-05-11T14:56:59</time>
      </trkpt>
      <trkpt lat="43.44097" lon="3.44199">
        <ele>-62</ele>
        <time>2012-05-11T14:57:29</time>
      </trkpt>
      <trkpt lat="43.44062" lon="3.44199">
        <ele>-64</ele>
        <time>2012-05-11T14:57:59</time>
      </trkpt>
      <trkpt lat="43.44031" lon="3.44202">
        <ele>-62</ele>
        <time>2012-05-11T14:58:29</time>
      </trkpt>
      <trkpt lat="43.44002" lon="3.44178">
        <ele>-60</ele>
        <time>2012-05-11T14:58:59</time>
      </trkpt>
      <trkpt lat="43.43969" lon="3.44163">
        <ele>-58</ele>
        <time>2012-05-11T14:59:30</time>
      </trkpt>
      <trkpt lat="43.43935" lon="3.44166">
        <ele>-56</ele>
        <time>2012-05-11T15:00:00</time>
      </trkpt>
      <trkpt lat="43.439" lon="3.44166">
        <ele>-56</ele>
        <time>2012-05-11T15:00:30</time>
      </trkpt>
      <trkpt lat="43.4387" lon="3.44157">
        <ele>-53</ele>
        <time>2012-05-11T15:01:00</time>
      </trkpt>
      <trkpt lat="43.43837" lon="3.44133">
        <ele>-50</ele>
        <time>2012-05-11T15:01:31</time>
      </trkpt>
      <trkpt lat="43.43805" lon="3.44114">
        <ele>-49</ele>
        <time>2012-05-11T15:02:01</time>
      </trkpt>
      <trkpt lat="43.43771" lon="3.44099">
        <ele>-47</ele>
        <time>2012-05-11T15:02:31</time>
      </trkpt>
      <trkpt lat="43.43754" lon="3.44094">
        <ele>-46</ele>
        <time>2012-05-11T15:03:01</time>
      </trkpt>
      <trkpt lat="43.43755" lon="3.44089">
        <ele>-46</ele>
        <time>2012-05-11T15:03:31</time>
      </trkpt>
      <trkpt lat="43.4375" lon="3.44089">
        <ele>-46</ele>
        <time>2012-05-11T15:04:01</time>
      </trkpt>
      <trkpt lat="43.43749" lon="3.44088">
        <ele>-46</ele>
        <time>2012-05-11T15:04:32</time>
      </trkpt>
      <trkpt lat="43.4375" lon="3.44096">
        <ele>-46</ele>
        <time>2012-05-11T15:05:02</time>
      </trkpt>
      <trkpt lat="43.43749" lon="3.44096">
        <ele>-45</ele>
        <time>2012-05-11T15:05:32</time>
      </trkpt>
      <trkpt lat="43.43749" lon="3.44101">
        <ele>-45</ele>
        <time>2012-05-11T15:06:02</time>
      </trkpt>
      <trkpt lat="43.43744" lon="3.44099">
        <ele>-46</ele>
        <time>2012-05-11T15:06:32</time>
      </trkpt>
      <trkpt lat="43.43733" lon="3.44092">
        <ele>-43</ele>
        <time>2012-05-11T15:07:02</time>
      </trkpt>
      <trkpt lat="43.43707" lon="3.44089">
        <ele>-41</ele>
        <time>2012-05-11T15:07:33</time>
      </trkpt>
      <trkpt lat="43.43699" lon="3.44078">
        <ele>-40</ele>
        <time>2012-05-11T15:08:03</time>
      </trkpt>
      <trkpt lat="43.43699" lon="3.44033">
        <ele>-41</ele>
        <time>2012-05-11T15:08:33</time>
      </trkpt>
      <trkpt lat="43.43685" lon="3.43988">
        <ele>-43</ele>
        <time>2012-05-11T15:09:03</time>
      </trkpt>
      <trkpt lat="43.43666" lon="3.43953">
        <ele>-41</ele>
        <time>2012-05-11T15:09:33</time>
      </trkpt>
      <trkpt lat="43.43661" lon="3.43945">
        <ele>-42</ele>
        <time>2012-05-11T15:10:04</time>
      </trkpt>
      <trkpt lat="43.43634" lon="3.4393">
        <ele>-45</ele>
        <time>2012-05-11T15:10:34</time>
      </trkpt>
      <trkpt lat="43.43601" lon="3.43915">
        <ele>-46</ele>
        <time>2012-05-11T15:11:04</time>
      </trkpt>
      <trkpt lat="43.4357" lon="3.43917">
        <ele>-44</ele>
        <time>2012-05-11T15:11:34</time>
      </trkpt>
      <trkpt lat="43.43549" lon="3.43929">
        <ele>-41</ele>
        <time>2012-05-11T15:12:05</time>
      </trkpt>
      <trkpt lat="43.43525" lon="3.43947">
        <ele>-39</ele>
        <time>2012-05-11T15:12:35</time>
      </trkpt>
      <trkpt lat="43.43495" lon="3.43966">
        <ele>-39</ele>
        <time>2012-05-11T15:13:05</time>
      </trkpt>
      <trkpt lat="43.43466" lon="3.44003">
        <ele>-41</ele>
        <time>2012-05-11T15:13:35</time>
      </trkpt>
      <trkpt lat="43.43458" lon="3.44035">
        <ele>-46</ele>
        <time>2012-05-11T15:14:05</time>
      </trkpt>
      <trkpt lat="43.43452" lon="3.44064">
        <ele>-47</ele>
        <time>2012-05-11T15:14:35</time>
      </trkpt>
      <trkpt lat="43.43452" lon="3.44069">
        <ele>-47</ele>
        <time>2012-05-11T15:15:06</time>
      </trkpt>
      <trkpt lat="43.43453" lon="3.44067">
        <ele>-47</ele>
        <time>2012-05-11T15:15:16</time>
      </trkpt>
    </trkseg>
  </trk>
</gpx>